Time,TemperatureF,DewpointF,PressureIn,WindDirection,WindDirectionDegrees,WindSpeedMPH,WindSpeedGustMPH,Humidity,HourlyPrecipIn,Conditions,Clouds,dailyrainin,SoftwareType,DateUTC
2013-10-05 00:00:00,69.7,67.0,29.77,SE,131,4.0,4.0,91,0.00,,,0.00,Wunderground v.1.15,2013-10-05 05:00:00,
2013-10-05 00:06:00,69.6,66.9,29.77,SE,133,4.0,8.0,91,0.00,,,0.00,Wunderground v.1.15,2013-10-05 05:06:00,
2013-10-05 00:12:00,69.6,66.9,29.77,East,101,4.0,8.0,91,0.00,,,0.00,Wunderground v.1.15,2013-10-05 05:12:00,
2013-10-05 00:18:00,69.5,66.8,29.77,SE,146,4.0,8.0,91,0.00,,,0.00,Wunderground v.1.15,2013-10-05 05:18:00,
2013-10-05 00:24:00,69.5,66.4,29.77,ESE,123,3.0,8.0,90,0.00,,,0.00,Wunderground v.1.15,2013-10-05 05:24:00,
2013-10-05 00:30:00,69.4,66.3,29.77,SE,137,3.0,8.0,90,0.00,,,0.00,Wunderground v.1.15,2013-10-05 05:30:00,
2013-10-05 00:36:00,69.4,66.3,29.77,SE,146,3.0,8.0,90,0.00,,,0.00,Wunderground v.1.15,2013-10-05 05:36:00,
2013-10-05 00:42:00,69.4,66.3,29.77,SSE,150,3.0,8.0,90,0.00,,,0.00,Wunderground v.1.15,2013-10-05 05:42:00,
2013-10-05 00:48:00,69.6,66.5,29.77,SE,145,3.0,8.0,90,0.00,,,0.00,Wunderground v.1.15,2013-10-05 05:48:00,
2013-10-05 00:54:00,69.7,66.3,29.77,SSE,155,3.0,8.0,89,0.00,,,0.00,Wunderground v.1.15,2013-10-05 05:54:00,
2013-10-05 01:00:00,69.8,66.4,29.77,SE,126,3.0,3.0,89,0.00,,,0.00,Wunderground v.1.15,2013-10-05 06:00:00,
2013-10-05 01:06:00,69.9,66.5,29.78,SSE,150,2.0,8.0,89,0.00,,,0.00,Wunderground v.1.15,2013-10-05 06:06:00,
2013-10-05 01:12:00,70.0,66.6,29.78,SSE,159,2.0,8.0,89,0.00,,,0.00,Wunderground v.1.15,2013-10-05 06:12:00,
2013-10-05 01:18:00,70.0,66.6,29.78,SSE,158,1.0,8.0,89,0.00,,,0.00,Wunderground v.1.15,2013-10-05 06:18:00,
2013-10-05 01:24:00,70.0,66.6,29.79,SE,139,1.0,8.0,89,0.00,,,0.00,Wunderground v.1.15,2013-10-05 06:24:00,
2013-10-05 01:30:00,69.9,66.5,29.79,SSE,149,1.0,8.0,89,0.00,,,0.00,Wunderground v.1.15,2013-10-05 06:30:00,
2013-10-05 01:36:00,69.9,66.5,29.79,SSE,165,1.0,8.0,89,0.00,,,0.00,Wunderground v.1.15,2013-10-05 06:36:00,
2013-10-05 01:42:00,69.9,66.5,29.79,SE,144,0.0,8.0,89,0.00,,,0.00,Wunderground v.1.15,2013-10-05 06:42:00,
2013-10-05 01:48:00,69.9,66.5,29.79,SE,136,1.0,8.0,89,0.00,,,0.00,Wunderground v.1.15,2013-10-05 06:48:00,
2013-10-05 01:54:00,69.7,66.6,29.79,SE,139,1.0,8.0,90,0.00,,,0.00,Wunderground v.1.15,2013-10-05 06:54:00,
2013-10-05 02:00:00,69.4,66.3,29.79,ESE,119,1.0,1.0,90,0.00,,,0.00,Wunderground v.1.15,2013-10-05 07:00:00,
2013-10-05 02:06:00,69.2,66.1,29.79,ESE,119,0.0,8.0,90,0.00,,,0.00,Wunderground v.1.15,2013-10-05 07:06:00,
2013-10-05 02:12:00,69.0,66.3,29.79,SE,138,0.0,8.0,91,0.00,,,0.00,Wunderground v.1.15,2013-10-05 07:12:00,
2013-10-05 02:18:00,68.8,66.1,29.78,SE,136,0.0,8.0,91,0.00,,,0.00,Wunderground v.1.15,2013-10-05 07:18:00,
2013-10-05 02:24:00,68.7,66.3,29.79,SE,139,1.0,8.0,92,0.00,,,0.00,Wunderground v.1.15,2013-10-05 07:24:00,
2013-10-05 02:30:00,68.6,66.2,29.78,SE,143,1.0,8.0,92,0.00,,,0.00,Wunderground v.1.15,2013-10-05 07:30:00,
2013-10-05 02:36:00,68.7,66.3,29.79,SSE,149,1.0,8.0,92,0.00,,,0.00,Wunderground v.1.15,2013-10-05 07:36:00,
2013-10-05 02:42:00,68.8,66.4,29.79,SSE,152,1.0,8.0,92,0.00,,,0.00,Wunderground v.1.15,2013-10-05 07:42:00,
2013-10-05 02:48:00,68.7,66.3,29.80,SSE,160,1.0,8.0,92,0.00,,,0.00,Wunderground v.1.15,2013-10-05 07:48:00,
2013-10-05 02:54:00,68.7,66.3,29.79,WSW,237,1.0,8.0,92,0.00,,,0.00,Wunderground v.1.15,2013-10-05 07:54:00,
2013-10-05 03:00:00,68.9,66.5,29.79,WSW,242,1.0,1.0,92,0.00,,,0.00,Wunderground v.1.15,2013-10-05 08:00:00,
2013-10-05 03:06:00,69.0,66.6,29.79,SSE,151,0.0,8.0,92,0.00,,,0.00,Wunderground v.1.15,2013-10-05 08:06:00,
2013-10-05 03:12:00,68.9,66.5,29.79,WSW,245,1.0,8.0,92,0.00,,,0.00,Wunderground v.1.15,2013-10-05 08:12:00,
2013-10-05 03:18:00,68.8,66.4,29.79,SW,225,1.0,8.0,92,0.00,,,0.00,Wunderground v.1.15,2013-10-05 08:18:00,
2013-10-05 03:24:00,68.6,66.2,29.78,SW,224,1.0,8.0,92,0.00,,,0.00,Wunderground v.1.15,2013-10-05 08:24:00,
2013-10-05 03:30:00,68.4,66.0,29.78,West,275,1.0,8.0,92,0.00,,,0.00,Wunderground v.1.15,2013-10-05 08:30:00,
2013-10-05 03:36:00,68.2,66.1,29.77,West,267,0.0,8.0,93,0.00,,,0.00,Wunderground v.1.15,2013-10-05 08:36:00,
2013-10-05 03:42:00,68.2,65.8,29.77,WNW,283,1.0,8.0,92,0.00,,,0.00,Wunderground v.1.15,2013-10-05 08:42:00,
2013-10-05 03:48:00,68.1,65.4,29.77,WNW,290,2.0,8.0,91,0.00,,,0.00,Wunderground v.1.15,2013-10-05 08:48:00,
2013-10-05 03:54:00,68.1,64.7,29.77,WSW,239,2.0,8.0,89,0.00,,,0.00,Wunderground v.1.15,2013-10-05 08:54:00,
2013-10-05 04:00:00,67.9,64.5,29.77,WSW,243,2.0,8.0,89,0.00,,,0.00,Wunderground v.1.15,2013-10-05 09:00:00,
2013-10-05 04:06:00,67.6,63.9,29.78,SW,226,1.0,8.0,88,0.00,,,0.00,Wunderground v.1.15,2013-10-05 09:06:00,
2013-10-05 04:12:00,67.3,63.6,29.79,WSW,248,2.0,8.0,88,0.00,,,0.00,Wunderground v.1.15,2013-10-05 09:12:00,
2013-10-05 04:18:00,67.0,63.3,29.79,West,259,1.0,8.0,88,0.00,,,0.00,Wunderground v.1.15,2013-10-05 09:18:00,
2013-10-05 04:24:00,66.8,63.5,29.79,WSW,252,2.0,8.0,89,0.00,,,0.00,Wunderground v.1.15,2013-10-05 09:24:00,
2013-10-05 04:30:00,66.5,63.2,29.79,SW,233,1.0,8.0,89,0.00,,,0.00,Wunderground v.1.15,2013-10-05 09:30:00,
2013-10-05 04:36:00,66.0,62.3,29.79,SW,224,1.0,8.0,88,0.00,,,0.00,Wunderground v.1.15,2013-10-05 09:36:00,
2013-10-05 04:42:00,65.5,59.9,29.79,WSW,248,1.0,8.0,82,0.00,,,0.00,Wunderground v.1.15,2013-10-05 09:42:00,
2013-10-05 04:48:00,65.2,59.2,29.80,WNW,289,2.0,8.0,81,0.00,,,0.00,Wunderground v.1.15,2013-10-05 09:48:00,
2013-10-05 04:54:00,64.9,59.3,29.80,WSW,242,0.0,8.0,82,0.00,,,0.00,Wunderground v.1.15,2013-10-05 09:54:00,
2013-10-05 05:00:00,64.5,58.9,29.79,WSW,242,0.0,8.0,82,0.00,,,0.00,Wunderground v.1.15,2013-10-05 10:00:00,
2013-10-05 05:06:00,64.2,58.9,29.80,SSW,208,0.0,8.0,83,0.00,,,0.00,Wunderground v.1.15,2013-10-05 10:06:00,
2013-10-05 05:12:00,64.1,58.8,29.80,West,260,0.0,8.0,83,0.00,,,0.00,Wunderground v.1.15,2013-10-05 10:12:00,
2013-10-05 05:18:00,63.8,58.9,29.80,SW,217,0.0,8.0,84,0.00,,,0.00,Wunderground v.1.15,2013-10-05 10:18:00,
2013-10-05 05:24:00,63.5,58.6,29.80,WSW,257,0.0,8.0,84,0.00,,,0.00,Wunderground v.1.15,2013-10-05 10:24:00,
2013-10-05 05:30:00,63.1,58.2,29.81,WSW,255,1.0,8.0,84,0.00,,,0.00,Wunderground v.1.15,2013-10-05 10:30:00,
2013-10-05 05:36:00,62.6,58.0,29.81,WSW,248,1.0,8.0,85,0.00,,,0.00,Wunderground v.1.15,2013-10-05 10:36:00,
2013-10-05 05:42:00,62.3,57.7,29.82,SW,236,2.0,8.0,85,0.00,,,0.00,Wunderground v.1.15,2013-10-05 10:42:00,
2013-10-05 05:48:00,62.1,57.9,29.82,SW,224,2.0,8.0,86,0.00,,,0.00,Wunderground v.1.15,2013-10-05 10:48:00,
2013-10-05 05:54:00,61.8,57.6,29.82,WSW,239,1.0,8.0,86,0.00,,,0.00,Wunderground v.1.15,2013-10-05 10:54:00,
2013-10-05 06:00:00,61.6,57.4,29.83,West,281,1.0,8.0,86,0.00,,,0.00,Wunderground v.1.15,2013-10-05 11:00:00,
2013-10-05 06:06:00,61.4,56.8,29.83,WSW,248,2.0,8.0,85,0.00,,,0.00,Wunderground v.1.15,2013-10-05 11:06:00,
2013-10-05 06:12:00,61.2,56.7,29.83,West,270,3.0,8.0,85,0.00,,,0.00,Wunderground v.1.15,2013-10-05 11:12:00,
2013-10-05 06:18:00,61.2,56.7,29.83,SW,229,3.0,8.0,85,0.00,,,0.00,Wunderground v.1.15,2013-10-05 11:18:00,
2013-10-05 06:24:00,61.1,55.9,29.83,SSW,212,3.0,8.0,83,0.00,,,0.00,Wunderground v.1.15,2013-10-05 11:24:00,
2013-10-05 06:30:00,61.0,55.5,29.83,West,281,3.0,3.0,82,0.00,,,0.00,Wunderground v.1.15,2013-10-05 11:30:00,
2013-10-05 06:36:00,60.9,55.4,29.83,WSW,240,2.0,8.0,82,0.00,,,0.00,Wunderground v.1.15,2013-10-05 11:36:00,
2013-10-05 06:42:00,60.6,55.1,29.83,WSW,252,2.0,8.0,82,0.00,,,0.00,Wunderground v.1.15,2013-10-05 11:42:00,
2013-10-05 06:48:00,60.4,54.9,29.82,West,259,2.0,8.0,82,0.00,,,0.00,Wunderground v.1.15,2013-10-05 11:48:00,
2013-10-05 06:54:00,60.1,54.6,29.82,West,270,2.0,8.0,82,0.00,,,0.00,Wunderground v.1.15,2013-10-05 11:54:00,
2013-10-05 07:00:00,59.9,54.4,29.83,West,276,2.0,2.0,82,0.00,,,0.00,Wunderground v.1.15,2013-10-05 12:00:00,
2013-10-05 07:06:00,59.7,54.5,29.82,WNW,299,1.0,8.0,83,0.00,,,0.00,Wunderground v.1.15,2013-10-05 12:06:00,
2013-10-05 07:12:00,59.5,54.7,29.83,West,269,1.0,8.0,84,0.00,,,0.00,Wunderground v.1.15,2013-10-05 12:12:00,
2013-10-05 07:18:00,59.4,54.6,29.83,WNW,285,1.0,8.0,84,0.00,,,0.00,Wunderground v.1.15,2013-10-05 12:18:00,
2013-10-05 07:24:00,59.2,54.7,29.83,SW,229,1.0,8.0,85,0.00,,,0.00,Wunderground v.1.15,2013-10-05 12:24:00,
2013-10-05 07:30:00,59.0,54.8,29.84,WSW,256,3.0,8.0,86,0.00,,,0.00,Wunderground v.1.15,2013-10-05 12:30:00,
2013-10-05 07:36:00,58.8,54.9,29.83,WNW,297,3.0,8.0,87,0.00,,,0.00,Wunderground v.1.15,2013-10-05 12:36:00,
2013-10-05 07:42:00,58.6,55.1,29.82,WSW,253,1.0,8.0,88,0.00,,,0.00,Wunderground v.1.15,2013-10-05 12:42:00,
2013-10-05 07:48:00,58.4,54.5,29.83,West,266,1.0,8.0,87,0.00,,,0.00,Wunderground v.1.15,2013-10-05 12:48:00,
2013-10-05 07:54:00,58.2,54.0,29.85,WSW,249,2.0,8.0,86,0.00,,,0.00,Wunderground v.1.15,2013-10-05 12:54:00,
2013-10-05 08:00:00,58.1,54.2,29.84,WSW,246,2.0,2.0,87,0.00,,,0.00,Wunderground v.1.15,2013-10-05 13:00:00,
2013-10-05 08:06:00,58.0,54.2,29.85,WSW,245,2.0,8.0,87,0.00,,,0.00,Wunderground v.1.15,2013-10-05 13:06:00,
2013-10-05 08:12:00,57.9,54.1,29.85,SW,228,3.0,8.0,87,0.00,,,0.00,Wunderground v.1.15,2013-10-05 13:12:00,
2013-10-05 08:18:00,57.7,54.2,29.86,West,266,2.0,8.0,88,0.00,,,0.00,Wunderground v.1.15,2013-10-05 13:18:00,
2013-10-05 08:24:00,57.4,53.9,29.87,SW,221,2.0,8.0,88,0.00,,,0.00,Wunderground v.1.15,2013-10-05 13:24:00,
2013-10-05 08:30:00,57.2,53.7,29.88,West,260,3.0,8.0,88,0.00,,,0.00,Wunderground v.1.15,2013-10-05 13:30:00,
2013-10-05 08:36:00,57.0,53.5,29.87,SW,236,5.0,8.0,88,0.00,,,0.00,Wunderground v.1.15,2013-10-05 13:36:00,
2013-10-05 08:42:00,57.0,53.2,29.88,WSW,243,4.0,8.0,87,0.00,,,0.00,Wunderground v.1.15,2013-10-05 13:42:00,
2013-10-05 08:48:00,56.9,53.1,29.89,SW,214,4.0,8.0,87,0.00,,,0.00,Wunderground v.1.15,2013-10-05 13:48:00,
2013-10-05 08:54:00,56.8,53.3,29.88,West,277,4.0,8.0,88,0.00,,,0.00,Wunderground v.1.15,2013-10-05 13:54:00,
2013-10-05 09:00:00,56.3,51.8,29.87,West,264,4.0,8.0,85,0.00,,,0.00,Wunderground v.1.15,2013-10-05 14:00:00,
2013-10-05 09:06:00,55.7,50.3,29.87,West,274,5.0,10.0,82,0.00,,,0.00,Wunderground v.1.15,2013-10-05 14:06:00,
2013-10-05 09:12:00,55.2,49.5,29.86,WSW,239,4.0,6.0,81,0.00,,,0.00,Wunderground v.1.15,2013-10-05 14:12:00,
2013-10-05 09:18:00,54.9,49.5,29.86,West,270,3.0,8.0,82,0.00,,,0.00,Wunderground v.1.15,2013-10-05 14:18:00,
2013-10-05 09:24:00,54.7,49.6,29.86,WNW,287,2.0,8.0,83,0.00,,,0.00,Wunderground v.1.15,2013-10-05 14:24:00,
2013-10-05 09:30:00,54.3,48.3,29.86,WNW,297,2.0,8.0,80,0.00,,,0.00,Wunderground v.1.15,2013-10-05 14:30:00,
2013-10-05 09:36:00,54.0,48.0,29.87,West,259,3.0,8.0,80,0.00,,,0.00,Wunderground v.1.15,2013-10-05 14:36:00,
2013-10-05 09:42:00,54.0,48.0,29.87,West,262,3.0,8.0,80,0.00,,,0.00,Wunderground v.1.15,2013-10-05 14:42:00,
2013-10-05 09:48:00,54.1,47.4,29.87,SW,224,2.0,8.0,78,0.00,,,0.00,Wunderground v.1.15,2013-10-05 14:48:00,
2013-10-05 09:54:00,54.0,47.0,29.86,NW,309,3.0,8.0,77,0.00,,,0.00,Wunderground v.1.15,2013-10-05 14:54:00,
2013-10-05 10:00:00,53.9,46.9,29.86,WSW,248,2.0,2.0,77,0.00,,,0.00,Wunderground v.1.15,2013-10-05 15:00:00,
2013-10-05 10:06:00,53.8,47.1,29.86,WNW,294,3.0,8.0,78,0.00,,,0.00,Wunderground v.1.15,2013-10-05 15:06:00,
2013-10-05 10:12:00,53.7,47.0,29.86,West,264,3.0,8.0,78,0.00,,,0.00,Wunderground v.1.15,2013-10-05 15:12:00,
2013-10-05 10:18:00,53.9,47.5,29.86,NW,308,2.0,8.0,79,0.00,,,0.00,Wunderground v.1.15,2013-10-05 15:18:00,
2013-10-05 10:24:00,54.2,47.5,29.85,West,259,2.0,8.0,78,0.00,,,0.00,Wunderground v.1.15,2013-10-05 15:24:00,
2013-10-05 10:30:00,54.5,47.4,29.86,WNW,292,3.0,3.0,77,0.00,,,0.00,Wunderground v.1.15,2013-10-05 15:30:00,
2013-10-05 10:36:00,54.7,47.3,29.86,SW,215,3.0,8.0,76,0.00,,,0.00,Wunderground v.1.15,2013-10-05 15:36:00,
2013-10-05 10:42:00,54.5,47.1,29.86,WNW,290,3.0,8.0,76,0.00,,,0.00,Wunderground v.1.15,2013-10-05 15:42:00,
2013-10-05 10:48:00,54.7,47.3,29.85,NW,313,3.0,8.0,76,0.00,,,0.00,Wunderground v.1.15,2013-10-05 15:48:00,
2013-10-05 10:54:00,54.5,46.7,29.86,SSW,198,3.0,8.0,75,0.00,,,0.00,Wunderground v.1.15,2013-10-05 15:54:00,
2013-10-05 11:00:00,54.8,47.0,29.85,West,273,3.0,3.0,75,0.00,,,0.00,Wunderground v.1.15,2013-10-05 16:00:00,
2013-10-05 11:06:00,55.6,47.4,29.84,West,270,2.0,8.0,74,0.00,,,0.00,Wunderground v.1.15,2013-10-05 16:06:00,
2013-10-05 11:12:00,55.8,47.3,29.84,NW,308,2.0,8.0,73,0.00,,,0.00,Wunderground v.1.15,2013-10-05 16:12:00,
2013-10-05 11:18:00,56.0,47.1,29.84,WNW,290,2.0,8.0,72,0.00,,,0.00,Wunderground v.1.15,2013-10-05 16:18:00,
2013-10-05 11:24:00,55.9,47.4,29.84,West,260,2.0,8.0,73,0.00,,,0.00,Wunderground v.1.15,2013-10-05 16:24:00,
2013-10-05 11:30:00,56.2,47.3,29.85,SSW,210,2.0,8.0,72,0.00,,,0.00,Wunderground v.1.15,2013-10-05 16:30:00,
2013-10-05 11:36:00,56.2,46.9,29.85,WSW,248,2.0,8.0,71,0.00,,,0.00,Wunderground v.1.15,2013-10-05 16:36:00,
2013-10-05 11:42:00,56.3,46.6,29.85,SW,221,2.0,8.0,70,0.00,,,0.00,Wunderground v.1.15,2013-10-05 16:42:00,
2013-10-05 11:48:00,56.4,46.4,29.85,WSW,248,2.0,8.0,69,0.00,,,0.00,Wunderground v.1.15,2013-10-05 16:48:00,
2013-10-05 11:54:00,56.2,46.2,29.84,WNW,295,3.0,8.0,69,0.00,,,0.00,Wunderground v.1.15,2013-10-05 16:54:00,
2013-10-05 12:00:00,57.0,47.3,29.84,West,266,3.0,8.0,70,0.00,,,0.00,Wunderground v.1.15,2013-10-05 17:00:00,
2013-10-05 12:06:00,57.2,47.5,29.85,South,173,3.0,8.0,70,0.00,,,0.00,Wunderground v.1.15,2013-10-05 17:06:00,
2013-10-05 12:12:00,57.7,48.0,29.84,West,264,3.0,8.0,70,0.00,,,0.00,Wunderground v.1.15,2013-10-05 17:12:00,
2013-10-05 12:18:00,57.9,48.2,29.84,NW,315,3.0,8.0,70,0.00,,,0.00,Wunderground v.1.15,2013-10-05 17:18:00,
2013-10-05 12:24:00,58.1,48.0,29.84,WNW,294,3.0,8.0,69,0.00,,,0.00,Wunderground v.1.15,2013-10-05 17:24:00,
2013-10-05 12:30:00,58.6,46.9,29.84,SW,224,3.0,8.0,65,0.00,,,0.00,Wunderground v.1.15,2013-10-05 17:30:00,
2013-10-05 12:36:00,58.6,46.5,29.84,SW,231,3.0,8.0,64,0.00,,,0.00,Wunderground v.1.15,2013-10-05 17:36:00,
2013-10-05 12:42:00,59.2,47.0,29.84,WSW,239,2.0,8.0,64,0.00,,,0.00,Wunderground v.1.15,2013-10-05 17:42:00,
2013-10-05 12:48:00,59.4,46.8,29.84,SW,231,2.0,8.0,63,0.00,,,0.00,Wunderground v.1.15,2013-10-05 17:48:00,
2013-10-05 12:54:00,59.6,46.6,29.84,SW,228,3.0,8.0,62,0.00,,,0.00,Wunderground v.1.15,2013-10-05 17:54:00,
2013-10-05 13:00:00,60.0,46.9,29.83,WSW,253,3.0,3.0,62,0.00,,,0.00,Wunderground v.1.15,2013-10-05 18:00:00,
2013-10-05 13:06:00,59.9,46.4,29.83,SW,222,3.0,8.0,61,0.00,,,0.00,Wunderground v.1.15,2013-10-05 18:06:00,
2013-10-05 13:12:00,60.6,45.3,29.83,West,281,2.0,8.0,57,0.00,,,0.00,Wunderground v.1.15,2013-10-05 18:12:00,
2013-10-05 13:18:00,60.5,44.7,29.83,WSW,249,3.0,8.0,56,0.00,,,0.00,Wunderground v.1.15,2013-10-05 18:18:00,
2013-10-05 13:24:00,61.1,44.8,29.82,WSW,248,2.0,8.0,55,0.00,,,0.00,Wunderground v.1.15,2013-10-05 18:24:00,
2013-10-05 13:30:00,61.1,44.3,29.82,SSW,205,2.0,8.0,54,0.00,,,0.00,Wunderground v.1.15,2013-10-05 18:30:00,
2013-10-05 13:36:00,60.7,43.9,29.82,South,183,2.0,8.0,54,0.00,,,0.00,Wunderground v.1.15,2013-10-05 18:36:00,
2013-10-05 13:42:00,60.7,43.9,29.82,WSW,238,2.0,8.0,54,0.00,,,0.00,Wunderground v.1.15,2013-10-05 18:42:00,
2013-10-05 13:48:00,60.5,43.3,29.82,SW,233,2.0,8.0,53,0.00,,,0.00,Wunderground v.1.15,2013-10-05 18:48:00,
2013-10-05 13:54:00,60.3,44.1,29.81,SE,136,3.0,8.0,55,0.00,,,0.00,Wunderground v.1.15,2013-10-05 18:54:00,
2013-10-05 14:00:00,60.2,44.4,29.81,SSE,156,2.0,2.0,56,0.00,,,0.00,Wunderground v.1.15,2013-10-05 19:00:00,
2013-10-05 14:06:00,60.4,43.7,29.81,South,176,2.0,8.0,54,0.00,,,0.00,Wunderground v.1.15,2013-10-05 19:06:00,
2013-10-05 14:12:00,61.0,43.7,29.81,South,172,2.0,8.0,53,0.00,,,0.00,Wunderground v.1.15,2013-10-05 19:12:00,
2013-10-05 14:18:00,61.6,43.8,29.80,South,188,3.0,8.0,52,0.00,,,0.00,Wunderground v.1.15,2013-10-05 19:18:00,
2013-10-05 14:24:00,61.3,44.0,29.80,SSE,158,3.0,8.0,53,0.00,,,0.00,Wunderground v.1.15,2013-10-05 19:24:00,
2013-10-05 14:30:00,61.6,44.3,29.79,WSW,257,3.0,3.0,53,0.00,,,0.00,Wunderground v.1.15,2013-10-05 19:30:00,
2013-10-05 14:36:00,61.7,42.3,29.79,SSE,165,4.0,8.0,49,0.00,,,0.00,Wunderground v.1.15,2013-10-05 19:36:00,
2013-10-05 14:42:00,61.2,41.9,29.79,SSE,159,5.0,5.0,49,0.00,,,0.00,Wunderground v.1.15,2013-10-05 19:42:00,
2013-10-05 14:48:00,61.3,42.0,29.79,SW,218,4.0,8.0,49,0.00,,,0.00,Wunderground v.1.15,2013-10-05 19:48:00,
2013-10-05 14:54:00,60.7,41.4,29.79,SW,216,3.0,8.0,49,0.00,,,0.00,Wunderground v.1.15,2013-10-05 19:54:00,
2013-10-05 15:00:00,60.3,41.0,29.79,SW,214,4.0,4.0,49,0.00,,,0.00,Wunderground v.1.15,2013-10-05 20:00:00,
2013-10-05 15:06:00,59.8,41.1,29.79,SW,230,3.0,8.0,50,0.00,,,0.00,Wunderground v.1.15,2013-10-05 20:06:00,
2013-10-05 15:12:00,59.7,42.0,29.80,WSW,256,2.0,3.0,52,0.00,,,0.00,Wunderground v.1.15,2013-10-05 20:12:00,
2013-10-05 15:18:00,59.2,41.6,29.79,NW,316,3.0,8.0,52,0.00,,,0.00,Wunderground v.1.15,2013-10-05 20:18:00,
2013-10-05 15:24:00,59.2,39.5,29.80,SW,236,4.0,8.0,48,0.00,,,0.00,Wunderground v.1.15,2013-10-05 20:24:00,
2013-10-05 15:30:00,59.2,40.0,29.80,West,259,3.0,10.0,49,0.00,,,0.00,Wunderground v.1.15,2013-10-05 20:30:00,
2013-10-05 15:36:00,59.0,38.8,29.80,South,174,4.0,10.0,47,0.00,,,0.00,Wunderground v.1.15,2013-10-05 20:36:00,
2013-10-05 15:42:00,58.8,40.2,29.79,WSW,242,4.0,8.0,50,0.00,,,0.00,Wunderground v.1.15,2013-10-05 20:42:00,
2013-10-05 15:48:00,58.9,40.3,29.79,South,181,3.0,8.0,50,0.00,,,0.00,Wunderground v.1.15,2013-10-05 20:48:00,
2013-10-05 15:54:00,59.0,40.4,29.79,SW,222,2.0,8.0,50,0.00,,,0.00,Wunderground v.1.15,2013-10-05 20:54:00,
2013-10-05 16:00:00,59.1,41.0,29.79,WSW,239,2.0,8.0,51,0.00,,,0.00,Wunderground v.1.15,2013-10-05 21:00:00,
2013-10-05 16:06:00,59.1,41.0,29.78,SW,223,2.0,8.0,51,0.00,,,0.00,Wunderground v.1.15,2013-10-05 21:06:00,
2013-10-05 16:12:00,59.3,41.2,29.79,SW,232,3.0,8.0,51,0.00,,,0.00,Wunderground v.1.15,2013-10-05 21:12:00,
2013-10-05 16:18:00,59.6,41.4,29.79,SW,229,3.0,8.0,51,0.00,,,0.00,Wunderground v.1.15,2013-10-05 21:18:00,
2013-10-05 16:24:00,59.8,42.1,29.79,South,190,3.0,8.0,52,0.00,,,0.00,Wunderground v.1.15,2013-10-05 21:24:00,
2013-10-05 16:30:00,59.8,41.1,29.79,WNW,291,3.0,8.0,50,0.00,,,0.00,Wunderground v.1.15,2013-10-05 21:30:00,
2013-10-05 16:36:00,59.7,40.5,29.79,SSW,211,5.0,8.0,49,0.00,,,0.00,Wunderground v.1.15,2013-10-05 21:36:00,
2013-10-05 16:42:00,59.5,40.8,29.78,West,262,5.0,8.0,50,0.00,,,0.00,Wunderground v.1.15,2013-10-05 21:42:00,
2013-10-05 16:48:00,59.4,41.3,29.78,SW,229,4.0,8.0,51,0.00,,,0.00,Wunderground v.1.15,2013-10-05 21:48:00,
2013-10-05 16:54:00,59.3,40.7,29.78,SW,223,4.0,8.0,50,0.00,,,0.00,Wunderground v.1.15,2013-10-05 21:54:00,
2013-10-05 17:00:00,59.5,40.3,29.78,SW,228,4.0,8.0,49,0.00,,,0.00,Wunderground v.1.15,2013-10-05 22:00:00,
2013-10-05 17:06:00,59.9,40.7,29.78,WSW,242,4.0,8.0,49,0.00,,,0.00,Wunderground v.1.15,2013-10-05 22:06:00,
2013-10-05 17:12:00,60.0,39.7,29.78,SW,225,5.0,8.0,47,0.00,,,0.00,Wunderground v.1.15,2013-10-05 22:12:00,
2013-10-05 17:18:00,60.2,40.4,29.77,SE,143,5.0,8.0,48,0.00,,,0.00,Wunderground v.1.15,2013-10-05 22:18:00,
2013-10-05 17:24:00,60.1,39.8,29.77,SW,222,4.0,9.0,47,0.00,,,0.00,Wunderground v.1.15,2013-10-05 22:24:00,
2013-10-05 17:30:00,59.4,39.7,29.77,West,262,4.0,8.0,48,0.00,,,0.00,Wunderground v.1.15,2013-10-05 22:30:00,
2013-10-05 17:36:00,59.1,40.5,29.77,SW,235,4.0,8.0,50,0.00,,,0.00,Wunderground v.1.15,2013-10-05 22:36:00,
2013-10-05 17:42:00,59.6,40.9,29.77,SSW,209,3.0,8.0,50,0.00,,,0.00,Wunderground v.1.15,2013-10-05 22:42:00,
2013-10-05 17:48:00,59.9,40.1,29.76,SW,233,2.0,8.0,48,0.00,,,0.00,Wunderground v.1.15,2013-10-05 22:48:00,
2013-10-05 17:54:00,59.9,40.1,29.76,SW,222,3.0,8.0,48,0.00,,,0.00,Wunderground v.1.15,2013-10-05 22:54:00,
2013-10-05 18:00:00,60.1,40.9,29.76,SSE,155,2.0,8.0,49,0.00,,,0.00,Wunderground v.1.15,2013-10-05 23:00:00,
2013-10-05 18:06:00,60.6,40.8,29.77,SSE,167,1.0,8.0,48,0.00,,,0.00,Wunderground v.1.15,2013-10-05 23:06:00,
2013-10-05 18:12:00,60.5,41.2,29.77,SSW,200,1.0,8.0,49,0.00,,,0.00,Wunderground v.1.15,2013-10-05 23:12:00,
2013-10-05 18:18:00,59.8,41.1,29.77,South,179,1.0,8.0,50,0.00,,,0.00,Wunderground v.1.15,2013-10-05 23:18:00,
2013-10-05 18:24:00,59.0,41.4,29.77,SSE,164,1.0,8.0,52,0.00,,,0.00,Wunderground v.1.15,2013-10-05 23:24:00,
2013-10-05 18:30:00,58.3,41.7,29.77,SE,139,0.0,8.0,54,0.00,,,0.00,Wunderground v.1.15,2013-10-05 23:30:00,
2013-10-05 18:36:00,57.7,41.6,29.77,SSE,152,1.0,8.0,55,0.00,,,0.00,Wunderground v.1.15,2013-10-05 23:36:00,
2013-10-05 18:42:00,57.4,41.8,29.77,SW,226,1.0,8.0,56,0.00,,,0.00,Wunderground v.1.15,2013-10-05 23:42:00,
2013-10-05 18:48:00,57.2,41.6,29.77,West,260,2.0,8.0,56,0.00,,,0.00,Wunderground v.1.15,2013-10-05 23:48:00,
2013-10-05 18:54:00,56.8,41.7,29.77,SW,235,1.0,8.0,57,0.00,,,0.00,Wunderground v.1.15,2013-10-05 23:54:00,
2013-10-05 19:00:00,56.5,42.3,29.78,SW,222,0.0,8.0,59,0.00,,,0.00,Wunderground v.1.15,2013-10-06 00:00:00,
2013-10-05 19:06:00,56.0,42.3,29.78,SW,222,0.0,8.0,60,0.00,,,0.00,Wunderground v.1.15,2013-10-06 00:06:00,
2013-10-05 19:12:00,55.5,41.8,29.79,WSW,256,2.0,12.0,60,0.00,,,0.00,Wunderground v.1.15,2013-10-06 00:12:00,
2013-10-05 19:18:00,54.9,42.1,29.79,WSW,242,4.0,12.0,62,0.00,,,0.00,Wunderground v.1.15,2013-10-06 00:18:00,
2013-10-05 19:24:00,54.4,42.1,29.80,SW,226,2.0,8.0,63,0.00,,,0.00,Wunderground v.1.15,2013-10-06 00:24:00,
2013-10-05 19:30:00,53.9,40.3,29.80,WNW,287,4.0,4.0,60,0.00,,,0.00,Wunderground v.1.15,2013-10-06 00:30:00,
2013-10-05 19:36:00,53.5,39.5,29.80,WSW,256,5.0,8.0,59,0.00,,,0.00,Wunderground v.1.15,2013-10-06 00:36:00,
2013-10-05 19:42:00,53.0,39.5,29.80,WNW,295,4.0,8.0,60,0.00,,,0.00,Wunderground v.1.15,2013-10-06 00:42:00,
2013-10-05 19:48:00,52.7,39.2,29.80,West,264,3.0,8.0,60,0.00,,,0.00,Wunderground v.1.15,2013-10-06 00:48:00,
2013-10-05 19:54:00,52.4,38.9,29.81,West,267,4.0,8.0,60,0.00,,,0.00,Wunderground v.1.15,2013-10-06 00:54:00,
2013-10-05 20:00:00,52.1,39.1,29.81,SW,222,4.0,8.0,61,0.00,,,0.00,Wunderground v.1.15,2013-10-06 01:00:00,
2013-10-05 20:06:00,51.8,39.2,29.81,SW,231,3.0,8.0,62,0.00,,,0.00,Wunderground v.1.15,2013-10-06 01:06:00,
2013-10-05 20:12:00,51.5,38.9,29.81,WSW,250,2.0,8.0,62,0.00,,,0.00,Wunderground v.1.15,2013-10-06 01:12:00,
2013-10-05 20:18:00,51.1,38.9,29.81,WSW,250,2.0,8.0,63,0.00,,,0.00,Wunderground v.1.15,2013-10-06 01:18:00,
2013-10-05 20:24:00,50.8,39.1,29.81,WSW,245,1.0,8.0,64,0.00,,,0.00,Wunderground v.1.15,2013-10-06 01:24:00,
2013-10-05 20:30:00,50.5,39.2,29.81,West,280,1.0,8.0,65,0.00,,,0.00,Wunderground v.1.15,2013-10-06 01:30:00,
2013-10-05 20:36:00,50.2,39.3,29.81,WSW,245,1.0,8.0,66,0.00,,,0.00,Wunderground v.1.15,2013-10-06 01:36:00,
2013-10-05 20:42:00,49.8,39.3,29.81,WNW,294,1.0,8.0,67,0.00,,,0.00,Wunderground v.1.15,2013-10-06 01:42:00,
2013-10-05 20:48:00,49.6,39.5,29.81,WSW,245,1.0,8.0,68,0.00,,,0.00,Wunderground v.1.15,2013-10-06 01:48:00,
2013-10-05 20:54:00,49.4,39.3,29.81,SW,228,1.0,8.0,68,0.00,,,0.00,Wunderground v.1.15,2013-10-06 01:54:00,
2013-10-05 21:00:00,49.2,39.5,29.81,South,182,1.0,8.0,69,0.00,,,0.00,Wunderground v.1.15,2013-10-06 02:00:00,
2013-10-05 21:06:00,49.0,39.3,29.81,WSW,245,1.0,8.0,69,0.00,,,0.00,Wunderground v.1.15,2013-10-06 02:06:00,
2013-10-05 21:12:00,48.7,39.4,29.81,WSW,245,1.0,8.0,70,0.00,,,0.00,Wunderground v.1.15,2013-10-06 02:12:00,
2013-10-05 21:18:00,48.5,39.2,29.81,WSW,248,1.0,8.0,70,0.00,,,0.00,Wunderground v.1.15,2013-10-06 02:18:00,
2013-10-05 21:24:00,48.3,39.3,29.81,WSW,257,1.0,8.0,71,0.00,,,0.00,Wunderground v.1.15,2013-10-06 02:24:00,
2013-10-05 21:30:00,48.1,39.5,29.81,WSW,243,1.0,8.0,72,0.00,,,0.00,Wunderground v.1.15,2013-10-06 02:30:00,
2013-10-05 21:36:00,47.9,39.3,29.81,West,269,1.0,8.0,72,0.00,,,0.00,Wunderground v.1.15,2013-10-06 02:36:00,
2013-10-05 21:42:00,47.8,39.6,29.81,SW,229,1.0,8.0,73,0.00,,,0.00,Wunderground v.1.15,2013-10-06 02:42:00,
2013-10-05 21:48:00,47.7,39.5,29.81,WSW,240,2.0,8.0,73,0.00,,,0.00,Wunderground v.1.15,2013-10-06 02:48:00,
2013-10-05 21:54:00,47.5,39.3,29.81,WSW,251,1.0,8.0,73,0.00,,,0.00,Wunderground v.1.15,2013-10-06 02:54:00,
2013-10-05 22:00:00,47.4,39.5,29.81,West,281,1.0,8.0,74,0.00,,,0.00,Wunderground v.1.15,2013-10-06 03:00:00,
2013-10-05 22:06:00,47.3,39.4,29.82,SW,236,1.0,8.0,74,0.00,,,0.00,Wunderground v.1.15,2013-10-06 03:06:00,
2013-10-05 22:12:00,47.1,39.2,29.82,WSW,255,1.0,8.0,74,0.00,,,0.00,Wunderground v.1.15,2013-10-06 03:12:00,
2013-10-05 22:18:00,47.0,39.1,29.81,SW,224,1.0,8.0,74,0.00,,,0.00,Wunderground v.1.15,2013-10-06 03:18:00,
2013-10-05 22:24:00,46.9,39.0,29.81,SW,229,1.0,8.0,74,0.00,,,0.00,Wunderground v.1.15,2013-10-06 03:24:00,
2013-10-05 22:30:00,46.9,39.0,29.81,WSW,257,1.0,8.0,74,0.00,,,0.00,Wunderground v.1.15,2013-10-06 03:30:00,
2013-10-05 22:36:00,46.9,39.0,29.81,SSW,204,1.0,8.0,74,0.00,,,0.00,Wunderground v.1.15,2013-10-06 03:36:00,
2013-10-05 22:42:00,46.7,38.9,29.81,SSW,204,0.0,8.0,74,0.00,,,0.00,Wunderground v.1.15,2013-10-06 03:42:00,
2013-10-05 22:48:00,46.5,39.0,29.80,SSE,149,0.0,8.0,75,0.00,,,0.00,Wunderground v.1.15,2013-10-06 03:48:00,
2013-10-05 22:54:00,46.3,38.8,29.80,SSE,149,0.0,8.0,75,0.00,,,0.00,Wunderground v.1.15,2013-10-06 03:54:00,
2013-10-05 23:00:00,46.1,39.0,29.79,SE,146,0.0,8.0,76,0.00,,,0.00,Wunderground v.1.15,2013-10-06 04:00:00,
2013-10-05 23:02:00,46.0,39.2,29.79,SE,141,0.0,8.0,77,0.00,,,0.00,Wunderground v.1.15,2013-10-06 04:02:00,
2013-10-05 23:04:00,45.8,39.0,29.79,SE,141,0.0,8.0,77,0.00,,,0.00,Wunderground v.1.15,2013-10-06 04:04:00,
2013-10-05 23:08:00,45.6,38.8,29.79,SE,141,0.0,8.0,77,0.00,,,0.00,Wunderground v.1.15,2013-10-06 04:08:00,
2013-10-05 23:12:00,45.3,38.8,29.79,SE,141,0.0,8.0,78,0.00,,,0.00,Wunderground v.1.15,2013-10-06 04:12:00,
2013-10-05 23:14:00,45.2,38.7,29.79,SE,141,0.0,8.0,78,0.00,,,0.00,Wunderground v.1.15,2013-10-06 04:14:00,
2013-10-05 23:18:00,44.9,38.8,29.79,SE,141,0.0,8.0,79,0.00,,,0.00,Wunderground v.1.15,2013-10-06 04:18:00,
2013-10-05 23:24:00,44.6,38.8,29.79,SE,141,0.0,8.0,80,0.00,,,0.00,Wunderground v.1.15,2013-10-06 04:24:00,
2013-10-05 23:30:00,44.3,38.5,29.79,SE,141,0.0,8.0,80,0.00,,,0.00,Wunderground v.1.15,2013-10-06 04:30:00,
2013-10-05 23:36:00,44.3,38.5,29.79,SE,141,0.0,8.0,80,0.00,,,0.00,Wunderground v.1.15,2013-10-06 04:36:00,
2013-10-05 23:42:00,44.2,38.7,29.79,SE,141,0.0,8.0,81,0.00,,,0.00,Wunderground v.1.15,2013-10-06 04:42:00,
2013-10-05 23:48:00,44.1,38.6,29.79,SE,141,0.0,8.0,81,0.00,,,0.00,Wunderground v.1.15,2013-10-06 04:48:00,
2013-10-05 23:54:00,44.0,38.9,29.79,SE,133,0.0,8.0,82,0.00,,,0.00,Wunderground v.1.15,2013-10-06 04:54:00,